sensor_id;sensor_type;location;lat;lon;timestamp;P1;durP1;ratioP1;P2;durP2;ratioP2
1026;SDS011;502;48.746;9.214;2022-10-31T00:00:39;10.17;;;6.93;;
1026;SDS011;502;48.746;9.214;2022-10-31T00:03:24;9.37;;;6.53;;
1026;SDS011;502;48.746;9.214;2022-10-31T00:06:10;10.40;;;7.17;;
1026;SDS011;502;48.746;9.214;2022-10-31T00:08:58;11.40;;;7.87;;
1026;SDS011;502;48.746;9.214;2022-10-31T00:11:44;9.50;;;7.07;;
1026;SDS011;502;48.746;9.214;2022-10-31T00:14:29;8.60;;;7.37;;
1026;SDS011;502;48.746;9.214;2022-10-31T00:17:14;8.70;;;7.80;;
1026;SDS011;502;48.746;9.214;2022-10-31T00:19:59;16.10;;;9.00;;
1026;SDS011;502;48.746;9.214;2022-10-31T00:22:45;11.70;;;7.77;;
1026;SDS011;502;48.746;9.214;2022-10-31T00:25:35;11.30;;;7.80;;
1026;SDS011;502;48.746;9.214;2022-10-31T00:28:21;9.87;;;8.20;;
1026;SDS011;502;48.746;9.214;2022-10-31T00:31:07;10.83;;;8.40;;
1026;SDS011;502;48.746;9.214;2022-10-31T00:33:54;10.87;;;9.30;;
1026;SDS011;502;48.746;9.214;2022-10-31T00:36:39;13.97;;;8.57;;
1026;SDS011;502;48.746;9.214;2022-10-31T00:39:28;15.30;;;8.17;;
1026;SDS011;502;48.746;9.214;2022-10-31T00:42:15;11.40;;;8.77;;
1026;SDS011;502;48.746;9.214;2022-10-31T00:45:02;13.60;;;8.50;;
1026;SDS011;502;48.746;9.214;2022-10-31T00:47:47;17.17;;;9.53;;
1026;SDS011;502;48.746;9.214;2022-10-31T00:50:33;12.50;;;9.73;;
1026;SDS011;502;48.746;9.214;2022-10-31T00:53:18;13.80;;;8.37;;
1026;SDS011;502;48.746;9.214;2022-10-31T00:56:04;10.93;;;8.50;;
1026;SDS011;502;48.746;9.214;2022-10-31T00:58:52;11.03;;;8.37;;
1026;SDS011;502;48.746;9.214;2022-10-31T01:01:38;13.73;;;7.90;;
1026;SDS011;502;48.746;9.214;2022-10-31T01:04:23;9.60;;;7.90;;
1026;SDS011;502;48.746;9.214;2022-10-31T01:07:09;11.10;;;7.87;;
1026;SDS011;502;48.746;9.214;2022-10-31T01:09:55;9.90;;;8.10;;
1026;SDS011;502;48.746;9.214;2022-10-31T01:12:41;9.77;;;7.10;;
1026;SDS011;502;48.746;9.214;2022-10-31T01:15:28;9.17;;;7.20;;
1026;SDS011;502;48.746;9.214;2022-10-31T01:18:13;13.90;;;7.77;;
1026;SDS011;502;48.746;9.214;2022-10-31T01:20:59;9.63;;;7.67;;
1026;SDS011;502;48.746;9.214;2022-10-31T01:23:45;10.17;;;7.37;;
1026;SDS011;502;48.746;9.214;2022-10-31T01:26:31;10.60;;;7.87;;
1026;SDS011;502;48.746;9.214;2022-10-31T01:29:17;8.80;;;7.27;;
1026;SDS011;502;48.746;9.214;2022-10-31T01:32:04;11.80;;;7.53;;
1026;SDS011;502;48.746;9.214;2022-10-31T01:34:49;11.20;;;9.17;;
1026;SDS011;502;48.746;9.214;2022-10-31T01:37:35;11.60;;;8.77;;
1026;SDS011;502;48.746;9.214;2022-10-31T01:40:20;12.30;;;9.23;;
1026;SDS011;502;48.746;9.214;2022-10-31T01:43:07;14.50;;;9.17;;
1026;SDS011;502;48.746;9.214;2022-10-31T01:45:55;13.00;;;7.80;;
1026;SDS011;502;48.746;9.214;2022-10-31T01:48:42;8.80;;;7.53;;
1026;SDS011;502;48.746;9.214;2022-10-31T01:51:28;10.33;;;7.50;;
1026;SDS011;502;48.746;9.214;2022-10-31T01:54:15;9.23;;;7.67;;
1026;SDS011;502;48.746;9.214;2022-10-31T01:57:02;9.00;;;6.80;;
1026;SDS011;502;48.746;9.214;2022-10-31T01:59:49;8.50;;;6.80;;
1026;SDS011;502;48.746;9.214;2022-10-31T02:02:36;8.07;;;7.27;;
1026;SDS011;502;48.746;9.214;2022-10-31T02:05:24;10.47;;;7.23;;
1026;SDS011;502;48.746;9.214;2022-10-31T02:08:12;10.90;;;7.10;;
1026;SDS011;502;48.746;9.214;2022-10-31T02:10:59;10.50;;;8.33;;
1026;SDS011;502;48.746;9.214;2022-10-31T02:13:46;8.50;;;7.70;;
1026;SDS011;502;48.746;9.214;2022-10-31T02:16:32;21.73;;;7.40;;
1026;SDS011;502;48.746;9.214;2022-10-31T02:19:18;8.63;;;7.37;;
1026;SDS011;502;48.746;9.214;2022-10-31T02:22:09;7.87;;;6.50;;
1026;SDS011;502;48.746;9.214;2022-10-31T02:25:02;8.47;;;7.23;;
1026;SDS011;502;48.746;9.214;2022-10-31T02:28:06;9.37;;;7.00;;
1026;SDS011;502;48.746;9.214;2022-10-31T02:31:09;10.97;;;7.03;;
1026;SDS011;502;48.746;9.214;2022-10-31T02:34:02;7.90;;;6.53;;
1026;SDS011;502;48.746;9.214;2022-10-31T02:36:52;8.33;;;7.20;;
1026;SDS011;502;48.746;9.214;2022-10-31T02:39:42;7.40;;;6.60;;
1026;SDS011;502;48.746;9.214;2022-10-31T02:42:38;8.90;;;6.90;;
1026;SDS011;502;48.746;9.214;2022-10-31T02:45:26;7.93;;;6.17;;
1026;SDS011;502;48.746;9.214;2022-10-31T02:48:16;8.07;;;6.87;;
1026;SDS011;502;48.746;9.214;2022-10-31T02:51:04;8.40;;;6.43;;
1026;SDS011;502;48.746;9.214;2022-10-31T02:53:49;8.07;;;6.07;;
1026;SDS011;502;48.746;9.214;2022-10-31T02:56:35;7.10;;;5.73;;
1026;SDS011;502;48.746;9.214;2022-10-31T02:59:20;7.07;;;5.20;;
1026;SDS011;502;48.746;9.214;2022-10-31T03:02:16;7.30;;;6.10;;
1026;SDS011;502;48.746;9.214;2022-10-31T03:05:13;7.73;;;5.57;;
1026;SDS011;502;48.746;9.214;2022-10-31T03:08:14;11.97;;;6.10;;
1026;SDS011;502;48.746;9.214;2022-10-31T03:11:05;7.80;;;6.00;;
1026;SDS011;502;48.746;9.214;2022-10-31T03:13:51;9.43;;;5.93;;
1026;SDS011;502;48.746;9.214;2022-10-31T03:16:44;7.80;;;5.67;;
1026;SDS011;502;48.746;9.214;2022-10-31T03:19:31;6.43;;;5.50;;
1026;SDS011;502;48.746;9.214;2022-10-31T03:22:20;6.80;;;6.00;;
1026;SDS011;502;48.746;9.214;2022-10-31T03:25:06;8.63;;;5.73;;
1026;SDS011;502;48.746;9.214;2022-10-31T03:27:52;6.53;;;4.83;;
1026;SDS011;502;48.746;9.214;2022-10-31T03:30:39;7.20;;;6.10;;
1026;SDS011;502;48.746;9.214;2022-10-31T03:33:27;7.73;;;5.90;;
1026;SDS011;502;48.746;9.214;2022-10-31T03:36:14;9.93;;;6.13;;
1026;SDS011;502;48.746;9.214;2022-10-31T03:39:03;7.63;;;5.27;;
1026;SDS011;502;48.746;9.214;2022-10-31T03:41:50;8.80;;;5.07;;
1026;SDS011;502;48.746;9.214;2022-10-31T03:44:38;8.50;;;5.90;;
1026;SDS011;502;48.746;9.214;2022-10-31T03:47:25;12.37;;;5.37;;
1026;SDS011;502;48.746;9.214;2022-10-31T03:50:12;7.17;;;5.30;;
1026;SDS011;502;48.746;9.214;2022-10-31T03:53:00;7.73;;;5.77;;
1026;SDS011;502;48.746;9.214;2022-10-31T03:55:50;7.00;;;5.80;;
1026;SDS011;502;48.746;9.214;2022-10-31T03:58:38;6.57;;;5.10;;
1026;SDS011;502;48.746;9.214;2022-10-31T04:01:28;7.57;;;5.60;;
1026;SDS011;502;48.746;9.214;2022-10-31T04:04:15;7.87;;;5.60;;
1026;SDS011;502;48.746;9.214;2022-10-31T04:07:00;5.67;;;5.13;;
1026;SDS011;502;48.746;9.214;2022-10-31T04:09:46;6.40;;;5.10;;
1026;SDS011;502;48.746;9.214;2022-10-31T04:12:34;6.20;;;4.80;;
1026;SDS011;502;48.746;9.214;2022-10-31T04:15:49;8.13;;;5.83;;
1026;SDS011;502;48.746;9.214;2022-10-31T04:18:35;6.90;;;5.20;;
1026;SDS011;502;48.746;9.214;2022-10-31T04:21:26;7.23;;;5.70;;
1026;SDS011;502;48.746;9.214;2022-10-31T04:24:12;6.37;;;5.30;;
1026;SDS011;502;48.746;9.214;2022-10-31T04:26:58;8.53;;;5.50;;
1026;SDS011;502;48.746;9.214;2022-10-31T04:29:46;6.47;;;4.90;;
1026;SDS011;502;48.746;9.214;2022-10-31T04:32:32;6.30;;;4.70;;
1026;SDS011;502;48.746;9.214;2022-10-31T04:35:17;5.83;;;5.03;;
1026;SDS011;502;48.746;9.214;2022-10-31T04:38:03;8.10;;;5.17;;
1026;SDS011;502;48.746;9.214;2022-10-31T04:40:50;7.83;;;5.87;;
1026;SDS011;502;48.746;9.214;2022-10-31T04:44:02;6.27;;;5.17;;
1026;SDS011;502;48.746;9.214;2022-10-31T04:46:49;8.60;;;6.53;;
1026;SDS011;502;48.746;9.214;2022-10-31T04:49:34;10.13;;;5.60;;
1026;SDS011;502;48.746;9.214;2022-10-31T04:52:19;7.60;;;5.30;;
1026;SDS011;502;48.746;9.214;2022-10-31T04:55:09;6.60;;;4.83;;
1026;SDS011;502;48.746;9.214;2022-10-31T04:58:10;10.30;;;5.40;;
1026;SDS011;502;48.746;9.214;2022-10-31T05:00:58;7.07;;;5.20;;
1026;SDS011;502;48.746;9.214;2022-10-31T05:03:45;7.07;;;5.17;;
1026;SDS011;502;48.746;9.214;2022-10-31T05:06:30;7.83;;;5.30;;
1026;SDS011;502;48.746;9.214;2022-10-31T05:09:16;9.20;;;6.70;;
1026;SDS011;502;48.746;9.214;2022-10-31T05:12:02;8.07;;;5.37;;
1026;SDS011;502;48.746;9.214;2022-10-31T05:15:06;6.67;;;5.73;;
1026;SDS011;502;48.746;9.214;2022-10-31T05:18:18;7.30;;;5.90;;
1026;SDS011;502;48.746;9.214;2022-10-31T05:21:31;7.23;;;6.50;;
1026;SDS011;502;48.746;9.214;2022-10-31T05:24:19;10.07;;;7.13;;
1026;SDS011;502;48.746;9.214;2022-10-31T05:27:05;7.37;;;6.60;;
1026;SDS011;502;48.746;9.214;2022-10-31T05:29:50;7.27;;;6.40;;
1026;SDS011;502;48.746;9.214;2022-10-31T05:32:36;10.13;;;7.20;;
1026;SDS011;502;48.746;9.214;2022-10-31T05:35:41;9.43;;;6.73;;
1026;SDS011;502;48.746;9.214;2022-10-31T05:38:51;8.67;;;7.67;;
1026;SDS011;502;48.746;9.214;2022-10-31T05:41:44;7.50;;;6.70;;
1026;SDS011;502;48.746;9.214;2022-10-31T05:44:34;7.60;;;6.47;;
1026;SDS011;502;48.746;9.214;2022-10-31T05:47:26;7.40;;;6.60;;
1026;SDS011;502;48.746;9.214;2022-10-31T05:50:18;7.30;;;6.07;;
1026;SDS011;502;48.746;9.214;2022-10-31T05:53:10;12.83;;;7.40;;
1026;SDS011;502;48.746;9.214;2022-10-31T05:55:58;8.00;;;6.50;;
1026;SDS011;502;48.746;9.214;2022-10-31T05:58:43;7.03;;;6.30;;
1026;SDS011;502;48.746;9.214;2022-10-31T06:01:29;9.53;;;6.70;;
1026;SDS011;502;48.746;9.214;2022-10-31T06:04:21;8.60;;;6.50;;
1026;SDS011;502;48.746;9.214;2022-10-31T06:07:07;8.20;;;6.60;;
1026;SDS011;502;48.746;9.214;2022-10-31T06:09:52;7.30;;;6.60;;
1026;SDS011;502;48.746;9.214;2022-10-31T06:12:40;8.10;;;7.27;;
1026;SDS011;502;48.746;9.214;2022-10-31T06:15:33;7.50;;;6.37;;
1026;SDS011;502;48.746;9.214;2022-10-31T06:18:18;9.70;;;8.00;;
1026;SDS011;502;48.746;9.214;2022-10-31T06:21:06;12.90;;;7.37;;
1026;SDS011;502;48.746;9.214;2022-10-31T06:23:53;12.10;;;8.63;;
1026;SDS011;502;48.746;9.214;2022-10-31T06:27:02;8.23;;;7.40;;
1026;SDS011;502;48.746;9.214;2022-10-31T06:29:49;11.30;;;7.70;;
1026;SDS011;502;48.746;9.214;2022-10-31T06:32:52;7.90;;;6.67;;
1026;SDS011;502;48.746;9.214;2022-10-31T06:35:38;8.27;;;6.70;;
1026;SDS011;502;48.746;9.214;2022-10-31T06:38:24;8.60;;;6.70;;
1026;SDS011;502;48.746;9.214;2022-10-31T06:41:10;7.60;;;6.80;;
1026;SDS011;502;48.746;9.214;2022-10-31T06:43:59;11.50;;;7.60;;
1026;SDS011;502;48.746;9.214;2022-10-31T06:47:09;10.90;;;7.43;;
1026;SDS011;502;48.746;9.214;2022-10-31T06:50:21;7.60;;;6.90;;
1026;SDS011;502;48.746;9.214;2022-10-31T06:53:07;10.40;;;8.07;;
1026;SDS011;502;48.746;9.214;2022-10-31T06:55:53;8.10;;;6.97;;
1026;SDS011;502;48.746;9.214;2022-10-31T06:58:40;10.77;;;6.30;;
1026;SDS011;502;48.746;9.214;2022-10-31T07:01:27;8.90;;;6.77;;
1026;SDS011;502;48.746;9.214;2022-10-31T07:04:14;7.23;;;6.53;;
1026;SDS011;502;48.746;9.214;2022-10-31T07:06:59;8.93;;;7.20;;
1026;SDS011;502;48.746;9.214;2022-10-31T07:09:45;10.50;;;6.57;;
1026;SDS011;502;48.746;9.214;2022-10-31T07:12:33;8.33;;;6.43;;
1026;SDS011;502;48.746;9.214;2022-10-31T07:15:18;8.07;;;7.20;;
1026;SDS011;502;48.746;9.214;2022-10-31T07:18:05;10.57;;;6.87;;
1026;SDS011;502;48.746;9.214;2022-10-31T07:20:53;10.03;;;7.53;;
1026;SDS011;502;48.746;9.214;2022-10-31T07:23:38;8.30;;;6.53;;
1026;SDS011;502;48.746;9.214;2022-10-31T07:26:59;7.20;;;6.50;;
1026;SDS011;502;48.746;9.214;2022-10-31T07:29:44;7.30;;;6.43;;
1026;SDS011;502;48.746;9.214;2022-10-31T07:32:36;7.00;;;6.30;;
1026;SDS011;502;48.746;9.214;2022-10-31T07:35:23;11.07;;;7.47;;
1026;SDS011;502;48.746;9.214;2022-10-31T07:38:20;9.07;;;6.40;;
1026;SDS011;502;48.746;9.214;2022-10-31T07:41:06;9.73;;;6.30;;
1026;SDS011;502;48.746;9.214;2022-10-31T07:43:56;9.37;;;7.77;;
1026;SDS011;502;48.746;9.214;2022-10-31T07:47:01;9.43;;;7.27;;
1026;SDS011;502;48.746;9.214;2022-10-31T07:50:05;8.23;;;7.40;;
1026;SDS011;502;48.746;9.214;2022-10-31T07:53:11;11.00;;;8.10;;
1026;SDS011;502;48.746;9.214;2022-10-31T07:56:08;11.33;;;7.73;;
1026;SDS011;502;48.746;9.214;2022-10-31T07:58:53;9.60;;;7.43;;
1026;SDS011;502;48.746;9.214;2022-10-31T08:01:39;10.07;;;7.77;;
1026;SDS011;502;48.746;9.214;2022-10-31T08:04:43;9.03;;;7.87;;
1026;SDS011;502;48.746;9.214;2022-10-31T08:07:57;9.00;;;8.00;;
1026;SDS011;502;48.746;9.214;2022-10-31T08:10:43;10.17;;;8.27;;
1026;SDS011;502;48.746;9.214;2022-10-31T08:13:29;8.17;;;7.37;;
1026;SDS011;502;48.746;9.214;2022-10-31T08:16:15;12.43;;;8.23;;
1026;SDS011;502;48.746;9.214;2022-10-31T08:19:08;9.40;;;8.40;;
1026;SDS011;502;48.746;9.214;2022-10-31T08:21:56;9.90;;;7.57;;
1026;SDS011;502;48.746;9.214;2022-10-31T08:24:42;10.20;;;8.50;;
1026;SDS011;502;48.746;9.214;2022-10-31T08:27:27;8.73;;;7.83;;
1026;SDS011;502;48.746;9.214;2022-10-31T08:30:17;9.37;;;8.47;;
1026;SDS011;502;48.746;9.214;2022-10-31T08:33:16;9.23;;;8.33;;
1026;SDS011;502;48.746;9.214;2022-10-31T08:36:21;10.23;;;8.27;;
1026;SDS011;502;48.746;9.214;2022-10-31T08:39:07;9.13;;;8.00;;
1026;SDS011;502;48.746;9.214;2022-10-31T08:41:52;8.53;;;7.70;;
1026;SDS011;502;48.746;9.214;2022-10-31T08:44:37;8.17;;;7.27;;
1026;SDS011;502;48.746;9.214;2022-10-31T08:47:24;12.73;;;7.57;;
1026;SDS011;502;48.746;9.214;2022-10-31T08:50:12;10.33;;;7.80;;
1026;SDS011;502;48.746;9.214;2022-10-31T08:53:00;7.97;;;7.17;;
1026;SDS011;502;48.746;9.214;2022-10-31T08:55:46;8.50;;;7.53;;
1026;SDS011;502;48.746;9.214;2022-10-31T08:58:41;8.63;;;7.07;;
1026;SDS011;502;48.746;9.214;2022-10-31T09:01:27;7.90;;;7.10;;
1026;SDS011;502;48.746;9.214;2022-10-31T09:04:14;8.10;;;7.30;;
1026;SDS011;502;48.746;9.214;2022-10-31T09:07:00;8.93;;;7.80;;
1026;SDS011;502;48.746;9.214;2022-10-31T09:09:45;14.90;;;7.70;;
1026;SDS011;502;48.746;9.214;2022-10-31T09:12:31;7.47;;;6.70;;
1026;SDS011;502;48.746;9.214;2022-10-31T09:15:55;7.73;;;6.83;;
1026;SDS011;502;48.746;9.214;2022-10-31T09:18:42;8.90;;;7.47;;
1026;SDS011;502;48.746;9.214;2022-10-31T09:21:28;9.40;;;8.50;;
1026;SDS011;502;48.746;9.214;2022-10-31T09:24:15;8.50;;;7.47;;
1026;SDS011;502;48.746;9.214;2022-10-31T09:27:01;8.63;;;7.83;;
1026;SDS011;502;48.746;9.214;2022-10-31T09:29:47;7.80;;;6.87;;
1026;SDS011;502;48.746;9.214;2022-10-31T09:32:33;8.00;;;7.20;;
1026;SDS011;502;48.746;9.214;2022-10-31T09:35:20;8.73;;;7.30;;
1026;SDS011;502;48.746;9.214;2022-10-31T09:38:08;7.60;;;6.50;;
1026;SDS011;502;48.746;9.214;2022-10-31T09:40:54;12.57;;;7.40;;
1026;SDS011;502;48.746;9.214;2022-10-31T09:43:44;7.90;;;7.10;;
1026;SDS011;502;48.746;9.214;2022-10-31T09:46:46;6.70;;;5.90;;
1026;SDS011;502;48.746;9.214;2022-10-31T09:49:43;8.23;;;7.37;;
1026;SDS011;502;48.746;9.214;2022-10-31T09:52:38;9.17;;;6.20;;
1026;SDS011;502;48.746;9.214;2022-10-31T09:55:30;10.03;;;7.40;;
1026;SDS011;502;48.746;9.214;2022-10-31T09:58:24;9.60;;;7.00;;
1026;SDS011;502;48.746;9.214;2022-10-31T10:01:30;8.90;;;8.00;;
1026;SDS011;502;48.746;9.214;2022-10-31T10:04:27;9.37;;;8.17;;
1026;SDS011;502;48.746;9.214;2022-10-31T10:07:40;10.43;;;7.87;;
1026;SDS011;502;48.746;9.214;2022-10-31T10:10:50;9.60;;;8.03;;
1026;SDS011;502;48.746;9.214;2022-10-31T10:13:50;11.93;;;8.33;;
1026;SDS011;502;48.746;9.214;2022-10-31T10:16:49;8.30;;;7.20;;
1026;SDS011;502;48.746;9.214;2022-10-31T10:19:53;10.13;;;7.33;;
1026;SDS011;502;48.746;9.214;2022-10-31T10:22:47;10.10;;;7.53;;
1026;SDS011;502;48.746;9.214;2022-10-31T10:25:37;7.93;;;7.13;;
1026;SDS011;502;48.746;9.214;2022-10-31T10:28:27;10.00;;;8.13;;
1026;SDS011;502;48.746;9.214;2022-10-31T10:31:16;8.30;;;7.10;;
1026;SDS011;502;48.746;9.214;2022-10-31T10:34:06;8.13;;;7.10;;
1026;SDS011;502;48.746;9.214;2022-10-31T10:36:56;12.93;;;8.00;;
1026;SDS011;502;48.746;9.214;2022-10-31T10:39:43;7.77;;;6.97;;
1026;SDS011;502;48.746;9.214;2022-10-31T10:42:30;8.50;;;7.37;;
1026;SDS011;502;48.746;9.214;2022-10-31T10:45:40;8.00;;;7.10;;
1026;SDS011;502;48.746;9.214;2022-10-31T10:48:48;7.27;;;6.50;;
1026;SDS011;502;48.746;9.214;2022-10-31T10:51:37;11.90;;;7.23;;
1026;SDS011;502;48.746;9.214;2022-10-31T10:57:38;12.53;;;7.60;;
1026;SDS011;502;48.746;9.214;2022-10-31T11:00:31;9.00;;;7.20;;
1026;SDS011;502;48.746;9.214;2022-10-31T11:03:22;11.80;;;8.10;;
1026;SDS011;502;48.746;9.214;2022-10-31T11:06:16;10.00;;;7.00;;
1026;SDS011;502;48.746;9.214;2022-10-31T11:09:08;9.20;;;6.63;;
1026;SDS011;502;48.746;9.214;2022-10-31T11:11:53;7.97;;;7.17;;
1026;SDS011;502;48.746;9.214;2022-10-31T11:14:43;9.80;;;7.77;;
1026;SDS011;502;48.746;9.214;2022-10-31T11:17:30;10.30;;;8.40;;
1026;SDS011;502;48.746;9.214;2022-10-31T11:20:25;10.27;;;8.03;;
1026;SDS011;502;48.746;9.214;2022-10-31T11:23:16;16.40;;;8.27;;
1026;SDS011;502;48.746;9.214;2022-10-31T11:26:02;12.63;;;8.57;;
1026;SDS011;502;48.746;9.214;2022-10-31T11:28:55;11.40;;;7.23;;
1026;SDS011;502;48.746;9.214;2022-10-31T11:31:42;11.43;;;7.70;;
1026;SDS011;502;48.746;9.214;2022-10-31T11:34:29;8.90;;;7.37;;
1026;SDS011;502;48.746;9.214;2022-10-31T11:37:19;13.13;;;7.50;;
1026;SDS011;502;48.746;9.214;2022-10-31T11:40:06;11.83;;;7.70;;
1026;SDS011;502;48.746;9.214;2022-10-31T11:42:59;9.30;;;8.37;;
1026;SDS011;502;48.746;9.214;2022-10-31T11:45:45;7.20;;;6.40;;
1026;SDS011;502;48.746;9.214;2022-10-31T11:48:30;11.80;;;7.40;;
1026;SDS011;502;48.746;9.214;2022-10-31T11:51:19;9.90;;;7.40;;
1026;SDS011;502;48.746;9.214;2022-10-31T11:54:15;9.40;;;6.53;;
1026;SDS011;502;48.746;9.214;2022-10-31T11:57:04;9.90;;;5.90;;
1026;SDS011;502;48.746;9.214;2022-10-31T11:59:50;9.30;;;6.30;;
1026;SDS011;502;48.746;9.214;2022-10-31T12:02:36;9.30;;;6.40;;
1026;SDS011;502;48.746;9.214;2022-10-31T12:05:23;9.27;;;7.03;;
1026;SDS011;502;48.746;9.214;2022-10-31T12:08:12;7.40;;;6.40;;
1026;SDS011;502;48.746;9.214;2022-10-31T12:11:00;8.67;;;6.10;;
1026;SDS011;502;48.746;9.214;2022-10-31T12:13:53;10.70;;;6.33;;
1026;SDS011;502;48.746;9.214;2022-10-31T12:16:46;10.00;;;6.77;;
1026;SDS011;502;48.746;9.214;2022-10-31T12:19:36;8.57;;;6.40;;
1026;SDS011;502;48.746;9.214;2022-10-31T12:22:26;7.07;;;6.00;;
1026;SDS011;502;48.746;9.214;2022-10-31T12:25:19;7.17;;;6.20;;
1026;SDS011;502;48.746;9.214;2022-10-31T12:31:29;6.20;;;5.60;;
1026;SDS011;502;48.746;9.214;2022-10-31T12:34:29;9.33;;;5.10;;
1026;SDS011;502;48.746;9.214;2022-10-31T12:37:26;8.13;;;6.00;;
1026;SDS011;502;48.746;9.214;2022-10-31T12:40:24;10.93;;;6.50;;
1026;SDS011;502;48.746;9.214;2022-10-31T12:43:21;11.13;;;6.80;;
1026;SDS011;502;48.746;9.214;2022-10-31T12:46:18;11.03;;;6.70;;
1026;SDS011;502;48.746;9.214;2022-10-31T12:49:15;11.40;;;7.03;;
1026;SDS011;502;48.746;9.214;2022-10-31T12:52:11;8.53;;;7.60;;
1026;SDS011;502;48.746;9.214;2022-10-31T12:55:08;7.17;;;6.47;;
1026;SDS011;502;48.746;9.214;2022-10-31T12:58:00;8.40;;;7.03;;
1026;SDS011;502;48.746;9.214;2022-10-31T13:00:48;9.50;;;6.80;;
1026;SDS011;502;48.746;9.214;2022-10-31T13:03:38;8.60;;;7.03;;
1026;SDS011;502;48.746;9.214;2022-10-31T13:06:30;12.50;;;5.90;;
1026;SDS011;502;48.746;9.214;2022-10-31T13:09:19;9.13;;;6.37;;
1026;SDS011;502;48.746;9.214;2022-10-31T13:12:08;8.80;;;6.00;;
1026;SDS011;502;48.746;9.214;2022-10-31T13:14:55;9.27;;;6.77;;
1026;SDS011;502;48.746;9.214;2022-10-31T13:17:43;9.40;;;6.80;;
1026;SDS011;502;48.746;9.214;2022-10-31T13:20:31;8.37;;;6.07;;
1026;SDS011;502;48.746;9.214;2022-10-31T13:23:20;9.50;;;5.87;;
1026;SDS011;502;48.746;9.214;2022-10-31T13:26:09;11.03;;;6.50;;
1026;SDS011;502;48.746;9.214;2022-10-31T13:28:59;8.30;;;7.40;;
1026;SDS011;502;48.746;9.214;2022-10-31T13:31:48;8.63;;;6.53;;
1026;SDS011;502;48.746;9.214;2022-10-31T13:34:34;8.27;;;6.30;;
1026;SDS011;502;48.746;9.214;2022-10-31T13:37:26;10.00;;;7.53;;
1026;SDS011;502;48.746;9.214;2022-10-31T13:40:19;8.67;;;7.33;;
1026;SDS011;502;48.746;9.214;2022-10-31T13:43:21;7.20;;;5.97;;
1026;SDS011;502;48.746;9.214;2022-10-31T13:46:23;9.83;;;6.33;;
1026;SDS011;502;48.746;9.214;2022-10-31T13:49:22;10.87;;;5.93;;
1026;SDS011;502;48.746;9.214;2022-10-31T13:52:13;7.87;;;5.93;;
1026;SDS011;502;48.746;9.214;2022-10-31T13:55:01;8.87;;;6.70;;
1026;SDS011;502;48.746;9.214;2022-10-31T13:57:47;10.50;;;6.00;;
1026;SDS011;502;48.746;9.214;2022-10-31T14:00:33;9.63;;;6.07;;
1026;SDS011;502;48.746;9.214;2022-10-31T14:03:31;9.70;;;6.10;;
1026;SDS011;502;48.746;9.214;2022-10-31T14:06:18;8.00;;;6.53;;
1026;SDS011;502;48.746;9.214;2022-10-31T14:09:04;10.43;;;6.30;;
1026;SDS011;502;48.746;9.214;2022-10-31T14:11:49;6.70;;;5.47;;
1026;SDS011;502;48.746;9.214;2022-10-31T14:14:39;8.50;;;6.40;;
1026;SDS011;502;48.746;9.214;2022-10-31T14:17:29;9.20;;;6.13;;
1026;SDS011;502;48.746;9.214;2022-10-31T14:20:38;8.67;;;7.23;;
1026;SDS011;502;48.746;9.214;2022-10-31T14:23:37;7.33;;;6.37;;
1026;SDS011;502;48.746;9.214;2022-10-31T14:26:31;13.67;;;6.50;;
1026;SDS011;502;48.746;9.214;2022-10-31T14:29:23;8.37;;;6.40;;
1026;SDS011;502;48.746;9.214;2022-10-31T14:32:15;8.07;;;6.53;;
1026;SDS011;502;48.746;9.214;2022-10-31T14:35:09;9.10;;;6.83;;
1026;SDS011;502;48.746;9.214;2022-10-31T14:38:12;7.10;;;6.20;;
1026;SDS011;502;48.746;9.214;2022-10-31T14:41:13;12.87;;;6.93;;
1026;SDS011;502;48.746;9.214;2022-10-31T14:47:29;10.33;;;6.77;;
1026;SDS011;502;48.746;9.214;2022-10-31T14:50:37;9.53;;;6.83;;
1026;SDS011;502;48.746;9.214;2022-10-31T14:53:29;8.90;;;6.57;;
1026;SDS011;502;48.746;9.214;2022-10-31T14:56:19;10.37;;;6.77;;
1026;SDS011;502;48.746;9.214;2022-10-31T14:59:08;10.83;;;7.20;;
1026;SDS011;502;48.746;9.214;2022-10-31T15:01:56;9.03;;;5.80;;
1026;SDS011;502;48.746;9.214;2022-10-31T15:04:42;8.63;;;5.77;;
1026;SDS011;502;48.746;9.214;2022-10-31T15:07:29;7.40;;;5.90;;
1026;SDS011;502;48.746;9.214;2022-10-31T15:10:20;10.60;;;6.33;;
1026;SDS011;502;48.746;9.214;2022-10-31T15:13:08;7.17;;;5.60;;
1026;SDS011;502;48.746;9.214;2022-10-31T15:15:54;10.30;;;6.63;;
1026;SDS011;502;48.746;9.214;2022-10-31T15:18:44;10.20;;;6.80;;
1026;SDS011;502;48.746;9.214;2022-10-31T15:21:32;7.87;;;5.53;;
1026;SDS011;502;48.746;9.214;2022-10-31T15:24:19;10.20;;;7.20;;
1026;SDS011;502;48.746;9.214;2022-10-31T15:27:06;11.40;;;6.80;;
1026;SDS011;502;48.746;9.214;2022-10-31T15:29:56;8.60;;;7.03;;
1026;SDS011;502;48.746;9.214;2022-10-31T15:32:43;7.50;;;6.50;;
1026;SDS011;502;48.746;9.214;2022-10-31T15:35:29;8.57;;;7.50;;
1026;SDS011;502;48.746;9.214;2022-10-31T15:38:15;7.37;;;6.60;;
1026;SDS011;502;48.746;9.214;2022-10-31T15:41:04;10.10;;;7.20;;
1026;SDS011;502;48.746;9.214;2022-10-31T15:43:52;12.60;;;8.23;;
1026;SDS011;502;48.746;9.214;2022-10-31T15:46:38;10.53;;;7.70;;
1026;SDS011;502;48.746;9.214;2022-10-31T15:49:28;10.00;;;7.50;;
1026;SDS011;502;48.746;9.214;2022-10-31T15:52:17;13.30;;;7.83;;
1026;SDS011;502;48.746;9.214;2022-10-31T15:55:15;9.83;;;7.37;;
1026;SDS011;502;48.746;9.214;2022-10-31T15:58:01;7.47;;;6.40;;
1026;SDS011;502;48.746;9.214;2022-10-31T16:00:59;7.80;;;6.50;;
1026;SDS011;502;48.746;9.214;2022-10-31T16:03:54;12.10;;;7.90;;
1026;SDS011;502;48.746;9.214;2022-10-31T16:06:43;16.27;;;8.80;;
1026;SDS011;502;48.746;9.214;2022-10-31T16:09:28;12.40;;;7.73;;
1026;SDS011;502;48.746;9.214;2022-10-31T16:12:14;8.27;;;6.97;;
1026;SDS011;502;48.746;9.214;2022-10-31T16:15:00;7.47;;;6.70;;
1026;SDS011;502;48.746;9.214;2022-10-31T16:17:47;11.70;;;7.20;;
1026;SDS011;502;48.746;9.214;2022-10-31T16:20:36;9.37;;;7.50;;
1026;SDS011;502;48.746;9.214;2022-10-31T16:23:22;9.53;;;7.70;;
1026;SDS011;502;48.746;9.214;2022-10-31T16:26:07;9.83;;;8.20;;
1026;SDS011;502;48.746;9.214;2022-10-31T16:28:53;14.87;;;8.33;;
1026;SDS011;502;48.746;9.214;2022-10-31T16:31:40;12.07;;;8.07;;
1026;SDS011;502;48.746;9.214;2022-10-31T16:34:27;9.57;;;8.40;;
1026;SDS011;502;48.746;9.214;2022-10-31T16:37:12;12.83;;;8.37;;
1026;SDS011;502;48.746;9.214;2022-10-31T16:39:58;10.57;;;8.37;;
1026;SDS011;502;48.746;9.214;2022-10-31T16:42:44;12.03;;;8.17;;
1026;SDS011;502;48.746;9.214;2022-10-31T16:45:31;11.80;;;8.73;;
1026;SDS011;502;48.746;9.214;2022-10-31T16:48:18;9.40;;;8.40;;
1026;SDS011;502;48.746;9.214;2022-10-31T16:51:07;12.50;;;8.70;;
1026;SDS011;502;48.746;9.214;2022-10-31T16:53:53;13.23;;;8.97;;
1026;SDS011;502;48.746;9.214;2022-10-31T16:56:39;12.87;;;8.90;;
1026;SDS011;502;48.746;9.214;2022-10-31T16:59:24;14.10;;;10.23;;
1026;SDS011;502;48.746;9.214;2022-10-31T17:02:11;12.93;;;10.30;;
1026;SDS011;502;48.746;9.214;2022-10-31T17:04:59;16.13;;;10.33;;
1026;SDS011;502;48.746;9.214;2022-10-31T17:07:46;12.30;;;11.00;;
1026;SDS011;502;48.746;9.214;2022-10-31T17:10:32;14.80;;;11.20;;
1026;SDS011;502;48.746;9.214;2022-10-31T17:13:18;11.93;;;10.47;;
1026;SDS011;502;48.746;9.214;2022-10-31T17:16:05;11.53;;;8.87;;
1026;SDS011;502;48.746;9.214;2022-10-31T17:18:51;10.43;;;8.83;;
1026;SDS011;502;48.746;9.214;2022-10-31T17:21:37;12.70;;;9.30;;
1026;SDS011;502;48.746;9.214;2022-10-31T17:24:24;12.43;;;10.43;;
1026;SDS011;502;48.746;9.214;2022-10-31T17:27:10;12.00;;;10.20;;
1026;SDS011;502;48.746;9.214;2022-10-31T17:29:56;11.27;;;8.40;;
1026;SDS011;502;48.746;9.214;2022-10-31T17:32:41;9.43;;;8.33;;
1026;SDS011;502;48.746;9.214;2022-10-31T17:35:26;12.27;;;8.60;;
1026;SDS011;502;48.746;9.214;2022-10-31T17:38:12;14.60;;;9.03;;
1026;SDS011;502;48.746;9.214;2022-10-31T17:40:58;8.70;;;7.80;;
1026;SDS011;502;48.746;9.214;2022-10-31T17:43:53;13.00;;;8.20;;
1026;SDS011;502;48.746;9.214;2022-10-31T17:46:39;15.10;;;11.20;;
1026;SDS011;502;48.746;9.214;2022-10-31T17:49:25;14.60;;;12.60;;
1026;SDS011;502;48.746;9.214;2022-10-31T17:52:10;16.57;;;14.57;;
1026;SDS011;502;48.746;9.214;2022-10-31T17:54:55;18.27;;;14.37;;
1026;SDS011;502;48.746;9.214;2022-10-31T17:57:42;21.80;;;14.70;;